Time;durP1;ratioP1;P1;durP2;ratioP2;P2;SDS_P1;SDS_P2;PMS_P1;PMS_P2;Temp;Humidity;BMP_temperature;BMP_pressure;BME280_temperature;BME280_humidity;BME280_pressure;Samples;Min_cycle;Max_cycle;Signal;HPM_P1;HPM_P2
2021/01/23 00:00:54;;;;;;;10.98;5.93;;;10.30;91.00;;;;;;5073174;28;20214;-51
2021/01/23 00:03:20;;;;;;;12.60;6.93;;;10.30;91.10;;;;;;5073028;28;20051;-53
2021/01/23 00:05:46;;;;;;;10.93;5.88;;;10.30;91.00;;;;;;5073068;28;20031;-53
2021/01/23 00:08:12;;;;;;;12.40;6.28;;;10.40;90.90;;;;;;5073189;28;20029;-54
2021/01/23 00:10:38;;;;;;;11.50;6.65;;;10.40;90.90;;;;;;5072965;28;20032;-54
2021/01/23 00:13:04;;;;;;;11.57;6.38;;;10.40;90.80;;;;;;5072774;28;20033;-54
2021/01/23 00:15:29;;;;;;;12.63;7.20;;;10.50;90.70;;;;;;5073026;28;20028;-51
2021/01/23 00:17:55;;;;;;;12.45;6.75;;;10.40;90.70;;;;;;5073223;28;20119;-54
2021/01/23 00:20:21;;;;;;;11.52;5.60;;;10.40;90.80;;;;;;5072994;28;20029;-51
2021/01/23 00:22:46;;;;;;;13.73;5.78;;;10.40;90.80;;;;;;5073345;28;20090;-54
2021/01/23 00:25:12;;;;;;;10.05;6.22;;;10.30;90.80;;;;;;5072864;28;20495;-53
2021/01/23 00:27:41;;;;;;;11.48;6.00;;;10.40;90.80;;;;;;5072568;28;20025;-54
2021/01/23 00:30:08;;;;;;;9.77;5.50;;;10.30;90.90;;;;;;5072905;28;20037;-52
2021/01/23 00:32:33;;;;;;;12.10;6.07;;;10.40;90.80;;;;;;5072882;28;20025;-53
2021/01/23 00:34:59;;;;;;;8.88;5.43;;;10.40;90.70;;;;;;5072992;28;20059;-52
2021/01/23 00:37:25;;;;;;;11.45;5.45;;;10.40;90.70;;;;;;5075334;28;20021;-54
2021/01/23 00:39:50;;;;;;;8.77;5.10;;;10.30;90.60;;;;;;5090912;28;20048;-51
2021/01/23 00:42:16;;;;;;;9.70;5.13;;;10.40;90.50;;;;;;5096427;28;20035;-53
2021/01/23 00:44:42;;;;;;;9.50;4.65;;;10.50;90.50;;;;;;5096574;28;20536;-54
2021/01/23 00:47:07;;;;;;;8.45;5.00;;;10.50;90.30;;;;;;5096711;28;20016;-53
2021/01/23 00:49:33;;;;;;;7.53;4.53;;;10.50;90.20;;;;;;5094675;28;20069;-54
2021/01/23 00:51:59;;;;;;;8.35;4.88;;;10.60;90.10;;;;;;5095022;28;20147;-51
2021/01/23 00:54:25;;;;;;;6.80;3.33;;;10.60;90.00;;;;;;5094741;28;20048;-54
2021/01/23 00:56:50;;;;;;;7.00;4.25;;;10.60;89.90;;;;;;5059514;28;20039;-53
2021/01/23 00:59:16;;;;;;;6.95;4.07;;;10.60;90.00;;;;;;5042761;28;20521;-51
2021/01/23 01:01:42;;;;;;;7.60;3.33;;;10.60;89.70;;;;;;5059158;28;20483;-51
2021/01/23 01:04:07;;;;;;;8.32;3.72;;;10.60;90.10;;;;;;5094815;28;20542;-52
2021/01/23 01:06:33;;;;;;;9.60;4.05;;;10.60;89.60;;;;;;5094742;28;20106;-51
2021/01/23 01:08:59;;;;;;;6.63;3.65;;;10.70;89.60;;;;;;5094759;28;20032;-54
2021/01/23 01:11:25;;;;;;;8.68;4.05;;;10.60;89.20;;;;;;5094658;28;20054;-52
2021/01/23 01:13:50;;;;;;;13.98;4.57;;;10.70;89.40;;;;;;5094606;28;20032;-52
2021/01/23 01:16:17;;;;;;;7.40;3.83;;;10.60;89.60;;;;;;5094395;28;20051;-53
2021/01/23 01:18:43;;;;;;;7.05;4.25;;;10.70;89.50;;;;;;5094691;28;20065;-53
2021/01/23 01:21:09;;;;;;;8.52;4.15;;;10.60;89.70;;;;;;5094726;28;20384;-51
2021/01/23 01:23:35;;;;;;;7.63;3.58;;;10.60;89.30;;;;;;5094427;28;20360;-53
2021/01/23 01:26:01;;;;;;;6.13;3.10;;;10.60;89.50;;;;;;5094618;28;20081;-52
2021/01/23 01:28:26;;;;;;;6.60;3.95;;;10.50;89.90;;;;;;5041789;28;20060;-52
2021/01/23 01:30:52;;;;;;;6.35;3.47;;;10.50;89.80;;;;;;5094335;28;20570;-52
2021/01/23 01:33:18;;;;;;;8.40;4.05;;;10.50;89.60;;;;;;5058717;28;20028;-53
2021/01/23 01:35:44;;;;;;;8.52;4.18;;;10.60;89.20;;;;;;5075277;28;20051;-51
2021/01/23 01:38:10;;;;;;;9.85;4.90;;;10.60;88.90;;;;;;5094097;28;20020;-51
2021/01/23 01:40:35;;;;;;;7.82;4.28;;;10.70;88.60;;;;;;5094011;28;20021;-54
2021/01/23 01:43:01;;;;;;;6.28;3.60;;;10.70;88.50;;;;;;5094188;28;20375;-51
2021/01/23 01:45:27;;;;;;;6.75;4.07;;;10.70;88.30;;;;;;5074870;28;20093;-52
2021/01/23 01:47:54;;;;;;;6.30;2.42;;;10.70;88.30;;;;;;5093916;28;20035;-53
2021/01/23 01:50:20;;;;;;;5.75;2.92;;;10.70;88.80;;;;;;5093960;28;20110;-52
2021/01/23 01:52:50;;;;;;;6.40;3.50;;;10.70;88.70;;;;;;5093834;28;20031;-51
2021/01/23 01:55:15;;;;;;;7.35;3.80;;;10.60;88.90;;;;;;5093560;28;20115;-53
2021/01/23 01:57:41;;;;;;;5.68;2.85;;;10.60;88.60;;;;;;5093604;28;20108;-54
2021/01/23 02:00:08;;;;;;;6.47;2.55;;;10.60;89.20;;;;;;5093840;28;20038;-51
2021/01/23 02:02:56;;;;;;;7.13;3.00;;;10.50;89.10;;;;;;5057843;28;20040;-52
2021/01/23 02:06:07;;;;;;;6.07;2.92;;;10.60;88.80;;;;;;5093458;28;20115;-53
2021/01/23 02:08:38;;;;;;;6.53;3.20;;;10.60;89.00;;;;;;5011035;28;20402;-53
2021/01/23 02:11:27;;;;;;;5.72;2.97;;;10.70;88.10;;;;;;5011233;28;20041;-54
2021/01/23 02:14:13;;;;;;;8.15;3.70;;;10.70;88.30;;;;;;5011425;28;20192;-54
2021/01/23 02:16:46;;;;;;;7.65;3.13;;;10.70;88.30;;;;;;5011266;28;20040;-54
2021/01/23 02:19:38;;;;;;;5.07;2.42;;;10.70;88.10;;;;;;5027619;28;20433;-53
2021/01/23 02:22:34;;;;;;;5.80;2.85;;;10.70;88.00;;;;;;5011149;28;20485;-52
2021/01/23 02:25:02;;;;;;;6.85;3.00;;;10.70;87.90;;;;;;5011038;28;20046;-53
2021/01/23 02:27:46;;;;;;;5.68;3.60;;;10.80;87.70;;;;;;5011152;28;20105;-53
2021/01/23 02:30:18;;;;;;;6.85;2.53;;;10.80;87.70;;;;;;5010715;28;20050;-51
2021/01/23 02:32:45;;;;;;;;;;;10.70;87.40;;;;;;5011160;28;20050;-54
2021/01/23 02:35:12;;;;;;;6.35;2.40;;;10.80;87.20;;;;;;5011035;28;19905;-52
2021/01/23 02:37:40;;;;;;;3.95;2.03;;;10.70;87.20;;;;;;5010545;28;20038;-53
2021/01/23 02:40:07;;;;;;;8.95;2.33;;;10.70;87.20;;;;;;5010482;28;20060;-54
2021/01/23 02:42:33;;;;;;;7.53;2.97;;;10.70;87.10;;;;;;5010599;28;20980;-54
2021/01/23 02:44:59;;;;;;;5.65;2.58;;;10.80;86.60;;;;;;5044151;28;20031;-54
2021/01/23 02:47:24;;;;;;;5.72;2.20;;;10.80;86.00;;;;;;5057147;28;20067;-54
2021/01/23 02:49:50;;;;;;;3.92;2.50;;;10.70;86.50;;;;;;5092654;28;20072;-53
2021/01/23 02:52:41;;;;;;;5.28;2.40;;;10.70;86.80;;;;;;5092741;28;20493;-52
2021/01/23 02:55:10;;;;;;;6.90;2.47;;;10.60;86.50;;;;;;5092593;28;20138;-54
2021/01/23 02:57:40;;;;;;;5.65;2.72;;;10.70;86.50;;;;;;5092610;28;20375;-52
2021/01/23 03:00:08;;;;;;;5.00;2.50;;;10.70;86.40;;;;;;5056434;28;20054;-53
2021/01/23 03:02:42;;;;;;;5.55;2.42;;;10.60;86.80;;;;;;5056526;28;20048;-53
2021/01/23 03:05:09;;;;;;;3.65;1.92;;;10.70;86.20;;;;;;5089908;28;20065;-54
2021/01/23 03:07:35;;;;;;;4.57;1.98;;;10.70;85.90;;;;;;5092462;28;20483;-54
2021/01/23 03:10:06;;;;;;;5.70;2.60;;;10.70;85.50;;;;;;5092453;28;20034;-54
2021/01/23 03:12:31;;;;;;;3.85;2.35;;;10.70;85.90;;;;;;5090676;28;20039;-52
2021/01/23 03:14:57;;;;;;;5.43;2.60;;;10.70;85.50;;;;;;5040134;28;20036;-52
2021/01/23 03:17:23;;;;;;;3.08;1.75;;;10.70;85.70;;;;;;5092231;28;20028;-54
2021/01/23 03:19:48;;;;;;;5.03;2.47;;;10.70;85.30;;;;;;5092270;28;20024;-53
2021/01/23 03:22:14;;;;;;;4.78;2.15;;;10.70;85.10;;;;;;5092372;28;20035;-53
2021/01/23 03:24:40;;;;;;;5.55;2.30;;;10.70;85.90;;;;;;5092190;28;20024;-53
2021/01/23 03:27:05;;;;;;;5.03;2.45;;;10.70;85.20;;;;;;5039973;28;20039;-53
2021/01/23 03:29:31;;;;;;;8.80;2.00;;;10.70;85.10;;;;;;5092285;28;20487;-52
2021/01/23 03:31:57;;;;;;;5.97;1.73;;;10.70;85.10;;;;;;5092307;28;20035;-54
2021/01/23 03:34:23;;;;;;;2.90;1.77;;;10.60;85.20;;;;;;5092412;28;20502;-54
2021/01/23 03:36:48;;;;;;;4.00;2.20;;;10.70;84.60;;;;;;5092205;28;20025;-53
2021/01/23 03:39:14;;;;;;;3.65;1.83;;;10.60;85.00;;;;;;5091746;28;20178;-53
2021/01/23 03:41:40;;;;;;;5.00;1.70;;;10.60;85.20;;;;;;5092274;28;20070;-50
2021/01/23 03:44:06;;;;;;;4.78;2.30;;;10.70;84.80;;;;;;5092377;28;20016;-52
2021/01/23 03:46:33;;;;;;;4.90;2.20;;;10.70;84.80;;;;;;5092081;28;20077;-54
2021/01/23 03:48:59;;;;;;;5.22;2.60;;;10.70;84.50;;;;;;5091980;28;20074;-50
2021/01/23 03:51:24;;;;;;;7.43;2.90;;;10.70;85.00;;;;;;5073047;28;20491;-52
2021/01/23 03:53:50;;;;;;;8.68;2.63;;;10.70;84.50;;;;;;5092439;28;20103;-53
2021/01/23 03:56:16;;;;;;;4.78;1.92;;;10.60;84.70;;;;;;5056511;28;20037;-54
2021/01/23 03:58:42;;;;;;;6.93;2.60;;;10.60;85.00;;;;;;5040036;28;20081;-53
2021/01/23 04:01:08;;;;;;;5.15;3.05;;;10.60;84.60;;;;;;5092057;28;20024;-53
2021/01/23 04:03:33;;;;;;;3.58;2.10;;;10.60;85.00;;;;;;5091944;28;20473;-54
2021/01/23 04:05:59;;;;;;;8.27;2.10;;;10.60;84.80;;;;;;5091910;28;20024;-52
2021/01/23 04:08:25;;;;;;;5.97;2.10;;;10.60;85.00;;;;;;5091816;28;20028;-53
2021/01/23 04:10:50;;;;;;;3.47;1.60;;;10.60;85.40;;;;;;5056697;28;20036;-53
2021/01/23 04:13:16;;;;;;;5.15;2.05;;;10.60;85.00;;;;;;5095830;28;20024;-52
2021/01/23 04:15:42;;;;;;;9.20;2.10;;;10.70;85.00;;;;;;5095468;28;20024;-54
2021/01/23 04:18:08;;;;;;;3.88;2.10;;;10.70;84.70;;;;;;5095952;28;20039;-54
2021/01/23 04:20:33;;;;;;;6.53;2.10;;;10.70;84.60;;;;;;5095627;28;20031;-52
2021/01/23 04:23:00;;;;;;;4.55;2.25;;;10.70;84.30;;;;;;5095217;28;20024;-54
2021/01/23 04:25:26;;;;;;;4.75;2.05;;;10.80;84.30;;;;;;5095552;28;20032;-54
2021/01/23 04:27:51;;;;;;;1.80;1.15;;;10.80;83.60;;;;;;5095378;28;20491;-54
2021/01/23 04:30:17;;;;;;;4.63;2.10;;;10.90;82.60;;;;;;5059495;28;20052;-53
2021/01/23 04:32:43;;;;;;;6.18;2.25;;;10.90;82.80;;;;;;5095350;28;20039;-53
2021/01/23 04:35:10;;;;;;;5.72;1.42;;;10.90;82.70;;;;;;5095270;28;20372;-52
2021/01/23 04:37:39;;;;;;;6.32;2.00;;;11.00;82.00;;;;;;5042734;28;20483;-53
2021/01/23 04:40:07;;;;;;;4.07;1.85;;;11.10;82.00;;;;;;5094971;28;20073;-53
2021/01/23 04:42:33;;;;;;;3.65;1.65;;;11.10;82.00;;;;;;5076305;28;20399;-53
2021/01/23 04:44:59;;;;;;;4.70;1.58;;;11.10;81.90;;;;;;5095055;28;20020;-54
2021/01/23 04:47:25;;;;;;;3.38;1.65;;;11.20;81.40;;;;;;5095158;28;20165;-52
2021/01/23 04:49:51;;;;;;;4.22;1.92;;;11.20;81.70;;;;;;5095314;28;20504;-53
2021/01/23 04:52:17;;;;;;;7.30;2.03;;;11.20;81.70;;;;;;5096215;28;20031;-53
2021/01/23 04:54:46;;;;;;;3.60;1.70;;;11.20;81.40;;;;;;5096323;28;20024;-52
2021/01/23 04:57:12;;;;;;;4.55;1.70;;;11.20;81.70;;;;;;5077450;28;20395;-54
2021/01/23 04:59:37;;;;;;;4.63;2.17;;;11.20;81.70;;;;;;5096602;28;20028;-52
2021/01/23 05:02:20;;;;;;;3.90;2.00;;;11.20;81.70;;;;;;5044084;28;20512;-53
2021/01/23 05:05:01;;;;;;;3.60;1.42;;;11.20;81.90;;;;;;5096227;28;20065;-53
2021/01/23 05:07:32;;;;;;;6.97;1.67;;;11.20;81.50;;;;;;5093796;28;20107;-54
2021/01/23 05:10:18;;;;;;;4.35;2.10;;;11.20;81.50;;;;;;5053456;28;20048;-53
2021/01/23 05:12:44;;;;;;;2.72;0.95;;;11.20;81.70;;;;;;5036806;28;20052;-54
2021/01/23 05:15:23;;;;;;;4.38;2.00;;;11.10;81.90;;;;;;5053431;28;20036;-53
2021/01/23 05:17:49;;;;;;;5.05;1.95;;;11.10;82.10;;;;;;5053520;28;20029;-53
2021/01/23 05:20:38;;;;;;;4.00;1.70;;;11.10;82.00;;;;;;5053272;28;20613;-52
2021/01/23 05:23:10;;;;;;;3.53;1.70;;;11.10;82.00;;;;;;5053125;28;20041;-53
2021/01/23 05:25:37;;;;;;;5.28;1.98;;;11.00;82.30;;;;;;5053172;28;20045;-53
2021/01/23 05:28:04;;;;;;;5.50;2.22;;;10.90;82.60;;;;;;5013221;28;20440;-54
2021/01/23 05:30:43;;;;;;;5.30;1.80;;;10.90;82.90;;;;;;5012670;28;20047;-53
2021/01/23 05:33:17;;;;;;;4.00;2.00;;;10.80;83.10;;;;;;5013148;28;20038;-53
2021/01/23 05:35:54;;;;;;;9.05;3.80;;;10.80;83.10;;;;;;5013035;28;20121;-54
2021/01/23 05:38:30;;;;;;;5.97;3.05;;;10.80;83.40;;;;;;5012871;28;20038;-53
2021/01/23 05:41:05;;;;;;;4.22;1.65;;;10.80;83.60;;;;;;5034181;28;20456;-53
2021/01/23 05:43:41;;;;;;;18.92;8.95;;;10.70;83.30;;;;;;5053019;28;20045;-52
2021/01/23 05:46:27;;;;;;;9.43;3.40;;;10.70;84.00;;;;;;5013110;28;20120;-54
2021/01/23 05:48:54;;;;;;;9.25;2.97;;;10.60;84.30;;;;;;5006072;28;20512;-52
2021/01/23 05:51:20;;;;;;;4.63;2.58;;;10.50;84.50;;;;;;5013270;28;20041;-54
2021/01/23 05:53:47;;;;;;;5.97;2.58;;;10.60;84.40;;;;;;5012994;28;20085;-54
2021/01/23 05:56:13;;;;;;;10.43;2.50;;;10.60;84.10;;;;;;5012810;28;20038;-54
2021/01/23 05:58:41;;;;;;;7.63;3.10;;;10.60;84.30;;;;;;5026103;28;20037;-54
2021/01/23 06:01:10;;;;;;;7.00;2.97;;;10.60;84.10;;;;;;5052394;28;20037;-52
2021/01/23 06:03:46;;;;;;;5.88;2.88;;;10.60;84.40;;;;;;5025106;28;20415;-54
2021/01/23 06:06:12;;;;;;;5.43;2.67;;;10.60;84.30;;;;;;5063131;28;20033;-53
2021/01/23 06:08:53;;;;;;;7.05;3.53;;;10.50;84.50;;;;;;5062320;28;20027;-54
2021/01/23 06:11:18;;;;;;;5.18;2.45;;;10.40;85.00;;;;;;5063211;28;20045;-54
2021/01/23 06:13:56;;;;;;;6.05;2.08;;;10.40;85.20;;;;;;5060319;28;20523;-53
2021/01/23 06:16:33;;;;;;;7.88;3.05;;;10.40;85.40;;;;;;5047338;28;20044;-49
2021/01/23 06:19:00;;;;;;;7.25;2.95;;;10.30;85.80;;;;;;5079860;28;20032;-54
2021/01/23 06:21:44;;;;;;;5.90;3.10;;;10.20;86.10;;;;;;5043442;28;20028;-53
2021/01/23 06:24:11;;;;;;;6.40;2.80;;;10.10;86.30;;;;;;5065636;28;20020;-53
2021/01/23 06:26:54;;;;;;;6.57;3.42;;;10.10;86.70;;;;;;5081205;28;20025;-53
2021/01/23 06:29:34;;;;;;;9.55;3.08;;;10.10;86.50;;;;;;5081524;28;20036;-50
2021/01/23 06:32:14;;;;;;;5.97;3.28;;;10.10;86.20;;;;;;5081912;28;20036;-49
2021/01/23 06:34:57;;;;;;;6.85;3.50;;;10.20;85.90;;;;;;5081016;28;20029;-51
2021/01/23 06:37:34;;;;;;;11.75;4.60;;;10.20;85.60;;;;;;5081447;28;20067;-53
2021/01/23 06:40:10;;;;;;;7.40;3.40;;;10.20;85.80;;;;;;5081386;28;20053;-53
2021/01/23 06:42:48;;;;;;;10.45;4.40;;;10.30;84.90;;;;;;5080817;28;20067;-51
2021/01/23 06:45:22;;;;;;;10.38;3.55;;;10.30;85.00;;;;;;5081354;28;20038;-50
2021/01/23 06:47:52;;;;;;;6.85;2.80;;;10.40;84.50;;;;;;5095284;28;20071;-53
2021/01/23 06:50:32;;;;;;;9.90;4.40;;;10.40;84.20;;;;;;5102613;28;20034;-51
2021/01/23 06:52:58;;;;;;;7.93;3.88;;;10.40;84.20;;;;;;5103484;28;20034;-51
2021/01/23 06:55:49;;;;;;;11.95;4.70;;;10.40;84.30;;;;;;5101983;28;20528;-51
2021/01/23 06:58:26;;;;;;;8.95;4.43;;;10.40;84.20;;;;;;5102896;28;20024;-52
2021/01/23 07:00:56;;;;;;;9.80;4.05;;;10.40;83.80;;;;;;5102576;28;20048;-52
2021/01/23 07:03:22;;;;;;;9.77;3.15;;;10.40;84.10;;;;;;5066305;28;20032;-50
2021/01/23 07:05:52;;;;;;;6.82;3.03;;;10.40;83.70;;;;;;5004851;28;20037;-51
2021/01/23 07:08:26;;;;;;;12.52;4.88;;;10.40;83.70;;;;;;5040363;28;20088;-53
2021/01/23 07:11:11;;;;;;;8.27;3.90;;;10.40;84.00;;;;;;5039778;28;20052;-52
2021/01/23 07:13:39;;;;;;;9.52;4.70;;;10.40;84.00;;;;;;5040556;28;20021;-51
2021/01/23 07:16:06;;;;;;;10.38;4.20;;;10.40;84.10;;;;;;5010448;28;20041;-50
2021/01/23 07:18:32;;;;;;;9.38;3.78;;;10.40;84.10;;;;;;4977853;28;20089;-52
2021/01/23 07:20:59;;;;;;;12.50;4.55;;;10.40;84.10;;;;;;5009936;28;20045;-53
2021/01/23 07:23:25;;;;;;;8.85;3.95;;;10.50;83.90;;;;;;5010006;28;20065;-49
2021/01/23 07:25:51;;;;;;;14.18;5.15;;;10.50;83.80;;;;;;5010424;28;20066;-49
2021/01/23 07:28:18;;;;;;;7.25;3.95;;;10.50;83.50;;;;;;4943640;29;20475;-48
2021/01/23 07:30:44;;;;;;;10.48;4.45;;;10.50;83.90;;;;;;4943600;29;20146;-49
2021/01/23 07:33:11;;;;;;;10.27;4.00;;;10.50;83.60;;;;;;4928039;29;20118;-49
2021/01/23 07:35:38;;;;;;;12.65;4.95;;;10.50;84.00;;;;;;4952114;28;20035;-51
2021/01/23 07:38:05;;;;;;;10.38;4.03;;;10.50;84.20;;;;;;5009521;28;20030;-49
2021/01/23 07:40:35;;;;;;;10.90;4.35;;;10.40;84.70;;;;;;4985561;28;20042;-48
2021/01/23 07:43:06;;;;;;;10.13;4.78;;;10.50;83.80;;;;;;4978027;28;20042;-52
2021/01/23 07:45:32;;;;;;;12.23;4.95;;;10.50;83.90;;;;;;5011762;28;20065;-52
2021/01/23 07:48:04;;;;;;;13.80;6.78;;;10.50;83.50;;;;;;5048705;28;20075;-52
2021/01/23 07:50:41;;;;;;;9.17;4.63;;;10.60;83.10;;;;;;5050527;28;20040;-53
2021/01/23 07:53:23;;;;;;;10.75;4.30;;;10.60;83.30;;;;;;5013353;28;20263;-52
2021/01/23 07:55:51;;;;;;;7.97;3.13;;;10.70;83.00;;;;;;5011585;28;20104;-52
2021/01/23 07:58:18;;;;;;;18.23;7.45;;;10.70;82.30;;;;;;4990628;28;20168;-53
2021/01/23 08:00:44;;;;;;;56.35;23.80;;;10.80;82.20;;;;;;5013024;28;20037;-53
2021/01/23 08:03:11;;;;;;;17.98;7.43;;;10.90;81.90;;;;;;5013888;28;20032;-52
2021/01/23 08:05:53;;;;;;;12.93;5.60;;;10.90;81.70;;;;;;5032963;28;20531;-52
2021/01/23 08:08:29;;;;;;;10.38;4.13;;;11.00;81.70;;;;;;5054913;28;20183;-53
2021/01/23 08:10:56;;;;;;;6.55;2.75;;;10.90;81.30;;;;;;5054891;28;20033;-52
2021/01/23 08:13:28;;;;;;;11.60;5.22;;;10.90;81.00;;;;;;5054297;28;20036;-52
2021/01/23 08:16:11;;;;;;;10.40;4.57;;;11.00;81.40;;;;;;5054747;28;20029;-52
2021/01/23 08:18:37;;;;;;;6.75;3.53;;;11.00;81.20;;;;;;5037959;28;20044;-52
2021/01/23 08:21:16;;;;;;;13.25;4.40;;;11.00;81.30;;;;;;5037507;28;20037;-52
2021/01/23 08:23:42;;;;;;;9.95;3.67;;;11.00;81.00;;;;;;5068828;28;20177;-52
2021/01/23 08:26:08;;;;;;;5.07;3.58;;;11.10;81.20;;;;;;5096785;28;20119;-53
2021/01/23 08:28:34;;;;;;;8.05;3.42;;;11.10;81.20;;;;;;5077335;28;20131;-52
2021/01/23 08:31:24;;;;;;;9.45;4.03;;;11.10;81.70;;;;;;5061164;28;20040;-52
2021/01/23 08:33:55;;;;;;;9.57;4.80;;;11.10;81.40;;;;;;5096830;28;20023;-53
2021/01/23 08:36:25;;;;;;;8.23;4.20;;;11.10;81.60;;;;;;5096650;28;20028;-52
2021/01/23 08:39:05;;;;;;;22.30;10.60;;;11.10;81.40;;;;;;5096533;28;20044;-53
2021/01/23 08:41:33;;;;;;;15.00;8.15;;;11.10;81.70;;;;;;5096412;28;20028;-53
2021/01/23 08:43:59;;;;;;;35.55;21.40;;;11.10;81.60;;;;;;5096154;28;20421;-52
2021/01/23 08:46:25;;;;;;;14.45;5.70;;;11.10;81.40;;;;;;5096421;28;20031;-52
2021/01/23 08:48:51;;;;;;;9.70;3.95;;;11.10;81.20;;;;;;5043538;28;20492;-53
2021/01/23 08:51:17;;;;;;;13.68;3.75;;;11.20;81.20;;;;;;5095821;28;20037;-52
2021/01/23 08:53:43;;;;;;;12.13;4.80;;;11.20;81.00;;;;;;5096075;28;20027;-52
2021/01/23 08:56:11;;;;;;;13.00;5.15;;;11.20;81.20;;;;;;5053161;28;20033;-53
2021/01/23 08:58:37;;;;;;;13.70;6.78;;;11.20;81.30;;;;;;5052544;28;20079;-52
2021/01/23 09:01:03;;;;;;;8.30;3.55;;;11.30;81.40;;;;;;5053567;28;20029;-53
2021/01/23 09:03:29;;;;;;;10.80;4.88;;;11.30;81.30;;;;;;5053745;28;20056;-52
2021/01/23 09:05:55;;;;;;;12.38;5.30;;;11.20;81.50;;;;;;4987459;28;20037;-52
2021/01/23 09:08:20;;;;;;;18.63;4.85;;;11.30;81.50;;;;;;5053749;28;20107;-52
2021/01/23 09:10:46;;;;;;;10.45;4.55;;;11.30;81.70;;;;;;5053466;28;20041;-52
2021/01/23 09:13:13;;;;;;;10.50;4.10;;;11.40;81.30;;;;;;5053305;28;20029;-53
2021/01/23 09:15:39;;;;;;;12.95;5.15;;;11.40;81.00;;;;;;5053558;28;20140;-52
2021/01/23 09:18:05;;;;;;;9.18;4.60;;;11.30;81.40;;;;;;5053362;28;20396;-52
2021/01/23 09:20:31;;;;;;;10.55;5.32;;;11.40;81.20;;;;;;5053383;28;20040;-54
2021/01/23 09:22:57;;;;;;;11.13;4.55;;;11.40;81.00;;;;;;5053289;28;20049;-54
2021/01/23 09:25:23;;;;;;;10.07;4.80;;;11.40;80.90;;;;;;5053464;28;20032;-52
2021/01/23 09:27:49;;;;;;;12.32;5.07;;;11.50;80.80;;;;;;5051226;28;20093;-52
2021/01/23 09:30:15;;;;;;;9.88;5.95;;;11.50;80.50;;;;;;5095313;28;20035;-52
2021/01/23 09:32:44;;;;;;;13.25;5.20;;;11.50;80.60;;;;;;5095582;28;20032;-52
2021/01/23 09:35:11;;;;;;;9.13;4.70;;;11.60;80.10;;;;;;5059498;28;20032;-52
2021/01/23 09:37:37;;;;;;;10.07;5.55;;;11.70;80.20;;;;;;5095554;28;20035;-52
2021/01/23 09:40:04;;;;;;;14.55;4.93;;;11.70;80.60;;;;;;5095297;28;20140;-52
2021/01/23 09:42:30;;;;;;;10.30;5.00;;;11.70;80.20;;;;;;5059804;28;20040;-52
2021/01/23 09:44:56;;;;;;;16.05;5.47;;;11.60;79.80;;;;;;5026326;28;20085;-52
2021/01/23 09:47:22;;;;;;;11.70;5.13;;;11.80;80.40;;;;;;5095588;28;20056;-52
2021/01/23 09:49:48;;;;;;;14.82;6.38;;;11.70;80.40;;;;;;5059519;28;20135;-47
2021/01/23 09:52:14;;;;;;;19.30;8.20;;;11.70;80.60;;;;;;5095145;28;20077;-48
2021/01/23 09:54:40;;;;;;;16.83;7.45;;;11.70;80.70;;;;;;5095038;28;20031;-48
2021/01/23 09:57:06;;;;;;;15.85;7.25;;;11.80;80.90;;;;;;5094833;28;20032;-49
2021/01/23 09:59:32;;;;;;;14.38;9.05;;;11.90;80.60;;;;;;5095055;28;20093;-49
2021/01/23 10:01:59;;;;;;;16.70;8.77;;;11.90;81.20;;;;;;5094757;28;20046;-49
2021/01/23 10:04:25;;;;;;;13.52;7.30;;;12.00;80.10;;;;;;5094736;28;20028;-48
2021/01/23 10:06:51;;;;;;;15.25;8.38;;;12.00;79.70;;;;;;5059308;28;20039;-47
2021/01/23 10:09:17;;;;;;;13.25;6.68;;;12.10;79.50;;;;;;5057961;28;20039;-49
2021/01/23 10:11:44;;;;;;;13.00;5.70;;;12.10;79.00;;;;;;5059259;28;20122;-50
2021/01/23 10:14:09;;;;;;;12.75;6.70;;;12.10;78.90;;;;;;5025911;28;20082;-49
2021/01/23 10:16:35;;;;;;;10.90;6.07;;;12.20;78.90;;;;;;5059218;28;20040;-50
2021/01/23 10:19:04;;;;;;;10.40;6.45;;;12.20;79.30;;;;;;5094287;28;20020;-48
2021/01/23 10:21:30;;;;;;;12.82;6.40;;;12.40;78.80;;;;;;5060041;28;20040;-47
2021/01/23 10:23:56;;;;;;;11.07;6.35;;;12.50;78.50;;;;;;5094565;28;20119;-49
2021/01/23 10:26:22;;;;;;;14.68;7.07;;;12.50;77.80;;;;;;5094403;28;20024;-48
2021/01/23 10:28:48;;;;;;;15.38;7.32;;;12.40;77.70;;;;;;5058703;28;20035;-48
2021/01/23 10:31:14;;;;;;;14.68;7.38;;;12.40;77.20;;;;;;5058725;28;20075;-49
2021/01/23 10:33:39;;;;;;;11.23;7.50;;;12.50;76.90;;;;;;5025187;28;20119;-48
2021/01/23 10:36:05;;;;;;;10.75;5.13;;;12.50;77.00;;;;;;5094249;28;20020;-48
2021/01/23 10:38:31;;;;;;;17.58;9.45;;;12.50;77.00;;;;;;5094200;28;20391;-48
2021/01/23 10:40:57;;;;;;;26.05;11.85;;;12.60;77.40;;;;;;5058529;28;20036;-48
2021/01/23 10:43:23;;;;;;;18.42;7.13;;;12.60;77.30;;;;;;5058476;28;20093;-49
2021/01/23 10:45:48;;;;;;;12.57;6.47;;;12.60;76.70;;;;;;5094092;28;20454;-50
2021/01/23 10:48:15;;;;;;;13.05;5.50;;;;;;;;;;5058316;28;20050;-48
2021/01/23 10:50:40;;;;;;;12.02;5.05;;;13.00;75.90;;;;;;5094164;28;20036;-50
2021/01/23 10:53:06;;;;;;;14.80;6.32;;;13.00;76.70;;;;;;5093984;28;20452;-47
2021/01/23 10:55:32;;;;;;;14.40;7.65;;;13.10;75.80;;;;;;5094027;28;20028;-47
2021/01/23 10:57:57;;;;;;;12.02;7.18;;;13.30;75.60;;;;;;5058387;28;20093;-47
2021/01/23 11:00:23;;;;;;;8.60;4.72;;;13.40;75.20;;;;;;5058345;28;20039;-50
2021/01/23 11:02:49;;;;;;;12.95;5.68;;;13.50;74.40;;;;;;5093707;28;20038;-48
2021/01/23 11:05:15;;;;;;;12.98;7.05;;;13.80;74.40;;;;;;5058455;28;20056;-46
2021/01/23 11:07:40;;;;;;;10.48;5.68;;;13.80;74.30;;;;;;5058283;28;20040;-49
2021/01/23 11:10:07;;;;;;;15.55;7.07;;;13.90;73.70;;;;;;5093472;28;20061;-49
2021/01/23 11:12:34;;;;;;;12.25;6.43;;;13.90;74.00;;;;;;5058596;28;20160;-48
2021/01/23 11:14:59;;;;;;;11.40;6.65;;;14.10;73.70;;;;;;5094273;28;20517;-41
2021/01/23 11:17:25;;;;;;;12.68;6.20;;;14.10;72.80;;;;;;5077977;28;20031;-48
2021/01/23 11:19:51;;;;;;;10.07;5.70;;;14.20;72.00;;;;;;5114007;28;20023;-58
2021/01/23 11:22:17;;;;;;;10.80;5.20;;;14.30;72.30;;;;;;5114013;28;20020;-45
2021/01/23 11:24:43;;;;;;;10.73;5.40;;;14.20;71.80;;;;;;5113893;28;20019;-47
2021/01/23 11:27:08;;;;;;;9.65;4.93;;;14.20;72.40;;;;;;5113918;28;20489;-48
2021/01/23 11:29:34;;;;;;;11.88;5.45;;;14.40;72.60;;;;;;5113869;28;20036;-48
2021/01/23 11:32:01;;;;;;;12.38;5.57;;;14.30;72.10;;;;;;5113586;28;20099;-48
2021/01/23 11:34:27;;;;;;;12.98;6.13;;;14.50;72.80;;;;;;5061190;28;20432;-48
2021/01/23 11:36:53;;;;;;;13.07;6.03;;;14.60;72.50;;;;;;5078119;28;20032;-48
2021/01/23 11:39:18;;;;;;;14.05;8.27;;;14.70;72.40;;;;;;5113674;28;20529;-48
2021/01/23 11:41:45;;;;;;;13.10;7.82;;;14.70;71.80;;;;;;5094645;28;20048;-47
2021/01/23 11:44:11;;;;;;;20.25;10.40;;;14.60;71.60;;;;;;5114002;28;20027;-45
2021/01/23 11:46:37;;;;;;;13.30;7.57;;;14.70;71.70;;;;;;5113927;28;20054;-47
2021/01/23 11:49:04;;;;;;;13.82;8.60;;;14.70;70.60;;;;;;5113636;28;20055;-48
2021/01/23 11:51:30;;;;;;;11.90;5.05;;;14.50;71.50;;;;;;5113718;28;20471;-47
2021/01/23 11:53:57;;;;;;;12.48;5.60;;;14.20;70.80;;;;;;5113902;28;20036;-47
2021/01/23 11:56:23;;;;;;;12.77;7.10;;;14.20;71.50;;;;;;5113535;28;20100;-48
2021/01/23 11:58:50;;;;;;;12.65;6.32;;;14.10;71.50;;;;;;5113808;28;20455;-48
2021/01/23 12:01:16;;;;;;;15.32;6.88;;;13.90;72.10;;;;;;5113599;28;20035;-48
2021/01/23 12:03:42;;;;;;;11.25;6.35;;;13.90;73.80;;;;;;5113536;28;20024;-48
2021/01/23 12:06:07;;;;;;;8.07;5.43;;;13.90;74.00;;;;;;5113615;28;20024;-46
2021/01/23 12:08:33;;;;;;;14.38;6.57;;;13.70;73.90;;;;;;5113721;28;20047;-47
2021/01/23 12:10:59;;;;;;;12.23;6.50;;;13.80;74.10;;;;;;5113457;28;20031;-47
2021/01/23 12:13:25;;;;;;;11.23;4.95;;;13.70;74.50;;;;;;5113981;28;20039;-48
2021/01/23 12:15:51;;;;;;;17.35;8.70;;;13.70;74.50;;;;;;5060798;28;20058;-47
2021/01/23 12:18:17;;;;;;;12.85;5.38;;;13.80;74.40;;;;;;5113508;28;20467;-47
2021/01/23 12:20:42;;;;;;;10.50;6.40;;;13.90;74.40;;;;;;5077979;28;20035;-48
2021/01/23 12:23:08;;;;;;;16.40;6.47;;;13.90;72.90;;;;;;5077361;28;20036;-47
2021/01/23 12:25:34;;;;;;;14.82;5.38;;;14.00;74.20;;;;;;5113343;28;20063;-47
2021/01/23 12:28:02;;;;;;;12.35;5.28;;;14.00;74.00;;;;;;5044257;28;20067;-48
2021/01/23 12:30:28;;;;;;;11.27;5.53;;;14.10;73.40;;;;;;5113396;28;20050;-48
2021/01/23 12:32:54;;;;;;;10.43;5.05;;;14.10;73.90;;;;;;5115230;28;20028;-47
2021/01/23 12:35:20;;;;;;;11.02;6.30;;;14.00;73.80;;;;;;5117387;28;20034;-47
2021/01/23 12:37:46;;;;;;;14.93;7.35;;;13.90;74.50;;;;;;5081299;28;20482;-48
2021/01/23 12:40:13;;;;;;;16.27;7.60;;;13.70;74.40;;;;;;5116938;28;20047;-47
2021/01/23 12:42:40;;;;;;;13.35;5.90;;;13.80;75.20;;;;;;5117289;28;20140;-47
2021/01/23 12:45:07;;;;;;;9.13;4.82;;;13.80;74.60;;;;;;5117428;28;20039;-47
2021/01/23 12:47:33;;;;;;;13.57;7.18;;;13.70;74.70;;;;;;5063622;28;20470;-47
2021/01/23 12:49:59;;;;;;;14.45;7.85;;;13.70;75.10;;;;;;5116892;28;20502;-47